PWSweather.com
Personal Weather Stations
Station Observations
BRISTOL
HorfieldFilton, BristolGB BS7

HorfieldFiltonBristolGB BS7

Lat: 51.5, Lon: -2.576

Elevation: 272

Station Type: Davis VP2

http://www.martynhicks.co.uk/weather/data.php

Latest ConditionsUpdated 7:30:01 PM GMT Wednesday, Sep 17, 2014
Currently Today's Max Today's Min Today's Average
Temperature 65.6°F18.7°C 72.6°F22.6°C 58.1°F14.5°C 64.3°F17.9°C
Dew Point 58.9°F14.9°C 59.7°F15.4°C 55.4°F13.0°C 57.6°F14.2°C
Winds Calm Calm 8.7 mph E14.0 kmh E - 3.5 mph 5.6 kmh
Wind Gusts 2.0 mph3.2 kmh 15.0 mph24.1 kmh - -
Humidity 79% 94% 62% 80%
Pressure 29.84 in1010.5 mb 29.92 in1013.2 mb 29.83 in1010.2 mb -
Hour Temp Dew Point Humidity Winds Wind Gusts Pressure Precip Precip Rate Daily Precip Total
07:30 PM 65.6°F18.7°C 58.9°F14.9°C 79% Calm Calm 2.0 mph3.2 kmh 29.84 in1010.5 mb 0.00 in0.0 mm 0.00 in/hr0.0 mm/hr 0.00 in0.0 mm
07:10 PM 66.0°F18.9°C 58.9°F14.9°C 78% 1.8 mph ENE2.9 kmh ENE 3.0 mph4.8 kmh 29.84 in1010.5 mb 0.00 in0.0 mm 0.00 in/hr0.0 mm/hr 0.00 in0.0 mm
07:00 PM 66.3°F19.1°C 58.9°F14.9°C 77% 1.7 mph E2.7 kmh E 4.0 mph6.4 kmh 29.84 in1010.5 mb 0.00 in0.0 mm 0.00 in/hr0.0 mm/hr 0.00 in0.0 mm
06:50 PM 66.5°F19.2°C 58.7°F14.8°C 76% 1.2 mph E1.9 kmh E 4.0 mph6.4 kmh 29.84 in1010.5 mb 0.00 in0.0 mm 0.00 in/hr0.0 mm/hr 0.00 in0.0 mm
06:40 PM 66.8°F19.3°C 58.6°F14.8°C 75% 1.4 mph ENE2.3 kmh ENE 2.0 mph3.2 kmh 29.83 in1010.2 mb 0.00 in0.0 mm 0.00 in/hr0.0 mm/hr 0.00 in0.0 mm
06:30 PM 67.0°F19.4°C 58.8°F14.9°C 75% 1.3 mph E2.1 kmh E 4.0 mph6.4 kmh 29.83 in1010.2 mb 0.00 in0.0 mm 0.00 in/hr0.0 mm/hr 0.00 in0.0 mm
06:20 PM 67.3°F19.6°C 58.7°F14.8°C 74% 1.0 mph ENE1.6 kmh ENE 3.0 mph4.8 kmh 29.83 in1010.2 mb 0.00 in0.0 mm 0.00 in/hr0.0 mm/hr 0.00 in0.0 mm
06:10 PM 67.6°F19.8°C 58.6°F14.8°C 73% 0.3 mph ENE0.5 kmh ENE 3.0 mph4.8 kmh 29.83 in1010.2 mb 0.00 in0.0 mm 0.00 in/hr0.0 mm/hr 0.00 in0.0 mm
06:00 PM 67.9°F19.9°C 58.5°F14.7°C 72% 2.7 mph E4.3 kmh E 5.0 mph8.0 kmh 29.83 in1010.2 mb 0.00 in0.0 mm 0.00 in/hr0.0 mm/hr 0.00 in0.0 mm
05:50 PM 68.2°F20.1°C 58.4°F14.7°C 71% 1.6 mph E2.6 kmh E 6.0 mph9.7 kmh 29.83 in1010.2 mb 0.00 in0.0 mm 0.00 in/hr0.0 mm/hr 0.00 in0.0 mm
05:40 PM 68.4°F20.2°C 58.6°F14.8°C 71% 2.0 mph E3.2 kmh E 5.0 mph8.0 kmh 29.83 in1010.2 mb 0.00 in0.0 mm 0.00 in/hr0.0 mm/hr 0.00 in0.0 mm
05:30 PM 68.7°F20.4°C 58.5°F14.7°C 70% 1.8 mph E2.9 kmh E 6.0 mph9.7 kmh 29.83 in1010.2 mb 0.00 in0.0 mm 0.00 in/hr0.0 mm/hr 0.00 in0.0 mm
05:20 PM 69.0°F20.6°C 58.4°F14.7°C 69% 1.9 mph E3.1 kmh E 7.0 mph11.3 kmh 29.83 in1010.2 mb 0.00 in0.0 mm 0.00 in/hr0.0 mm/hr 0.00 in0.0 mm
05:10 PM 69.4°F20.8°C 58.8°F14.9°C 69% 2.6 mph NE4.2 kmh NE 5.0 mph8.0 kmh 29.83 in1010.2 mb 0.00 in0.0 mm 0.00 in/hr0.0 mm/hr 0.00 in0.0 mm
05:00 PM 69.6°F20.9°C 59.0°F15.0°C 69% 1.3 mph E2.1 kmh E 4.0 mph6.4 kmh 29.83 in1010.2 mb 0.00 in0.0 mm 0.00 in/hr0.0 mm/hr 0.00 in0.0 mm
04:50 PM 69.7°F20.9°C 59.1°F15.1°C 69% 3.3 mph E5.3 kmh E 7.0 mph11.3 kmh 29.83 in1010.2 mb 0.00 in0.0 mm 0.00 in/hr0.0 mm/hr 0.00 in0.0 mm
04:40 PM 70.1°F21.2°C 59.1°F15.1°C 68% 2.7 mph E4.3 kmh E 9.0 mph14.5 kmh 29.83 in1010.2 mb 0.00 in0.0 mm 0.00 in/hr0.0 mm/hr 0.00 in0.0 mm
04:30 PM 70.4°F21.3°C 58.9°F14.9°C 67% 4.4 mph E7.1 kmh E 9.0 mph14.5 kmh 29.83 in1010.2 mb 0.00 in0.0 mm 0.00 in/hr0.0 mm/hr 0.00 in0.0 mm
04:20 PM 70.5°F21.4°C 59.0°F15.0°C 67% 1.2 mph E1.9 kmh E 5.0 mph8.0 kmh 29.83 in1010.2 mb 0.00 in0.0 mm 0.00 in/hr0.0 mm/hr 0.00 in0.0 mm
04:10 PM 70.5°F21.4°C 59.0°F15.0°C 67% 1.9 mph E3.1 kmh E 9.0 mph14.5 kmh 29.83 in1010.2 mb 0.00 in0.0 mm 0.00 in/hr0.0 mm/hr 0.00 in0.0 mm
04:00 PM 70.6°F21.4°C 58.7°F14.8°C 66% 5.5 mph E8.9 kmh E 9.0 mph14.5 kmh 29.83 in1010.2 mb 0.00 in0.0 mm 0.00 in/hr0.0 mm/hr 0.00 in0.0 mm
03:50 PM 70.9°F21.6°C 58.5°F14.7°C 65% 2.4 mph E3.9 kmh E 7.0 mph11.3 kmh 29.83 in1010.2 mb 0.00 in0.0 mm 0.00 in/hr0.0 mm/hr 0.00 in0.0 mm
03:40 PM 70.9°F21.6°C 58.5°F14.7°C 65% 3.6 mph E5.8 kmh E 4.0 mph6.4 kmh 29.83 in1010.2 mb 0.00 in0.0 mm 0.00 in/hr0.0 mm/hr 0.00 in0.0 mm
03:30 PM 70.8°F21.6°C 58.4°F14.7°C 65% 2.8 mph E4.5 kmh E 5.0 mph8.0 kmh 29.83 in1010.2 mb 0.00 in0.0 mm 0.00 in/hr0.0 mm/hr 0.00 in0.0 mm
03:20 PM 71.0°F21.7°C 58.7°F14.8°C 65% 5.7 mph E9.2 kmh E 9.0 mph14.5 kmh 29.83 in1010.2 mb 0.00 in0.0 mm 0.00 in/hr0.0 mm/hr 0.00 in0.0 mm
03:10 PM 71.4°F21.9°C 58.6°F14.8°C 64% 3.1 mph ENE5.0 kmh ENE 6.0 mph9.7 kmh 29.84 in1010.5 mb 0.00 in0.0 mm 0.00 in/hr0.0 mm/hr 0.00 in0.0 mm
03:00 PM 71.2°F21.8°C 58.4°F14.7°C 64% 4.4 mph E7.1 kmh E 7.0 mph11.3 kmh 29.83 in1010.2 mb 0.00 in0.0 mm 0.00 in/hr0.0 mm/hr 0.00 in0.0 mm
02:50 PM 71.5°F21.9°C 58.7°F14.8°C 64% 4.0 mph E6.4 kmh E 8.0 mph12.9 kmh 29.83 in1010.2 mb 0.00 in0.0 mm 0.00 in/hr0.0 mm/hr 0.00 in0.0 mm
02:40 PM 71.6°F22.0°C 59.2°F15.1°C 65% 0.4 mph E0.6 kmh E 3.0 mph4.8 kmh 29.83 in1010.2 mb 0.00 in0.0 mm 0.00 in/hr0.0 mm/hr 0.00 in0.0 mm
02:30 PM 71.4°F21.9°C 59.0°F15.0°C 65% 2.8 mph ENE4.5 kmh ENE 4.0 mph6.4 kmh 29.83 in1010.2 mb 0.00 in0.0 mm 0.00 in/hr0.0 mm/hr 0.00 in0.0 mm
02:20 PM 71.6°F22.0°C 58.8°F14.9°C 64% 2.7 mph E4.3 kmh E 2.0 mph3.2 kmh 29.84 in1010.5 mb 0.00 in0.0 mm 0.00 in/hr0.0 mm/hr 0.00 in0.0 mm
02:10 PM 71.6°F22.0°C 58.8°F14.9°C 64% 4.2 mph NE6.8 kmh NE 10.0 mph16.1 kmh 29.84 in1010.5 mb 0.00 in0.0 mm 0.00 in/hr0.0 mm/hr 0.00 in0.0 mm
02:00 PM 71.6°F22.0°C 58.8°F14.9°C 64% 2.8 mph E4.5 kmh E 8.0 mph12.9 kmh 29.84 in1010.5 mb 0.00 in0.0 mm 0.00 in/hr0.0 mm/hr 0.00 in0.0 mm
01:50 PM 72.0°F22.2°C 58.8°F14.9°C 63% 2.2 mph E3.5 kmh E 8.0 mph12.9 kmh 29.84 in1010.5 mb 0.00 in0.0 mm 0.00 in/hr0.0 mm/hr 0.00 in0.0 mm
01:40 PM 71.6°F22.0°C 58.8°F14.9°C 64% 3.2 mph E5.1 kmh E 10.0 mph16.1 kmh 29.84 in1010.5 mb 0.00 in0.0 mm 0.00 in/hr0.0 mm/hr 0.00 in0.0 mm
01:30 PM 72.6°F22.6°C 58.8°F14.9°C 62% 3.8 mph E6.1 kmh E 11.0 mph17.7 kmh 29.85 in1010.8 mb 0.00 in0.0 mm 0.00 in/hr0.0 mm/hr 0.00 in0.0 mm
01:20 PM 72.1°F22.3°C 59.7°F15.4°C 65% 4.1 mph ENE6.6 kmh ENE 7.0 mph11.3 kmh 29.84 in1010.5 mb 0.00 in0.0 mm 0.00 in/hr0.0 mm/hr 0.00 in0.0 mm
01:10 PM 72.0°F22.2°C 59.2°F15.1°C 64% 4.4 mph ENE7.1 kmh ENE 11.0 mph17.7 kmh 29.85 in1010.8 mb 0.00 in0.0 mm 0.00 in/hr0.0 mm/hr 0.00 in0.0 mm
01:00 PM 71.6°F22.0°C 58.8°F14.9°C 64% 6.9 mph E11.1 kmh E 10.0 mph16.1 kmh 29.85 in1010.8 mb 0.00 in0.0 mm 0.00 in/hr0.0 mm/hr 0.00 in0.0 mm
12:50 PM 71.5°F21.9°C 59.5°F15.3°C 66% 5.0 mph ENE8.0 kmh ENE 11.0 mph17.7 kmh 29.86 in1011.2 mb 0.00 in0.0 mm 0.00 in/hr0.0 mm/hr 0.00 in0.0 mm
12:40 PM 71.1°F21.7°C 59.6°F15.3°C 67% 3.2 mph E5.1 kmh E 5.0 mph8.0 kmh 29.86 in1011.2 mb 0.00 in0.0 mm 0.00 in/hr0.0 mm/hr 0.00 in0.0 mm
12:30 PM 70.6°F21.4°C 59.5°F15.3°C 68% 6.5 mph E10.5 kmh E 9.0 mph14.5 kmh 29.86 in1011.2 mb 0.00 in0.0 mm 0.00 in/hr0.0 mm/hr 0.00 in0.0 mm
12:20 PM 69.8°F21.0°C 59.2°F15.1°C 69% 4.3 mph E6.9 kmh E 5.0 mph8.0 kmh 29.87 in1011.5 mb 0.00 in0.0 mm 0.00 in/hr0.0 mm/hr 0.00 in0.0 mm
12:10 PM 69.9°F21.1°C 59.3°F15.2°C 69% 2.7 mph ENE4.3 kmh ENE 6.0 mph9.7 kmh 29.87 in1011.5 mb 0.00 in0.0 mm 0.00 in/hr0.0 mm/hr 0.00 in0.0 mm
12:00 PM 68.6°F20.3°C 58.8°F14.9°C 71% 4.3 mph E6.9 kmh E 7.0 mph11.3 kmh 29.88 in1011.9 mb 0.00 in0.0 mm 0.00 in/hr0.0 mm/hr 0.00 in0.0 mm
11:50 AM 68.4°F20.2°C 58.6°F14.8°C 71% 4.6 mph E7.4 kmh E 9.0 mph14.5 kmh 29.88 in1011.9 mb 0.00 in0.0 mm 0.00 in/hr0.0 mm/hr 0.00 in0.0 mm
11:40 AM 67.7°F19.8°C 58.3°F14.6°C 72% 5.2 mph ENE8.4 kmh ENE 7.0 mph11.3 kmh 29.88 in1011.9 mb 0.00 in0.0 mm 0.00 in/hr0.0 mm/hr 0.00 in0.0 mm
11:30 AM 67.6°F19.8°C 58.6°F14.8°C 73% 1.5 mph E2.4 kmh E 4.0 mph6.4 kmh 29.88 in1011.9 mb 0.00 in0.0 mm 0.00 in/hr0.0 mm/hr 0.00 in0.0 mm
11:20 AM 67.8°F19.9°C 58.0°F14.4°C 71% 5.4 mph E8.7 kmh E 11.0 mph17.7 kmh 29.89 in1012.2 mb 0.00 in0.0 mm 0.00 in/hr0.0 mm/hr 0.00 in0.0 mm
11:10 AM 67.2°F19.6°C 57.8°F14.3°C 72% 5.1 mph E8.2 kmh E 8.0 mph12.9 kmh 29.89 in1012.2 mb 0.00 in0.0 mm 0.00 in/hr0.0 mm/hr 0.00 in0.0 mm
11:00 AM 67.4°F19.7°C 58.1°F14.5°C 72% 5.8 mph E9.3 kmh E 11.0 mph17.7 kmh 29.89 in1012.2 mb 0.00 in0.0 mm 0.00 in/hr0.0 mm/hr 0.00 in0.0 mm
10:50 AM 67.5°F19.7°C 58.9°F14.9°C 74% 5.2 mph E8.4 kmh E 8.0 mph12.9 kmh 29.89 in1012.2 mb 0.00 in0.0 mm 0.00 in/hr0.0 mm/hr 0.00 in0.0 mm
10:40 AM 67.3°F19.6°C 59.1°F15.1°C 75% 2.1 mph E3.4 kmh E 7.0 mph11.3 kmh 29.89 in1012.2 mb 0.00 in0.0 mm 0.00 in/hr0.0 mm/hr 0.00 in0.0 mm
10:30 AM 66.3°F19.1°C 58.5°F14.7°C 76% 4.0 mph E6.4 kmh E 10.0 mph16.1 kmh 29.89 in1012.2 mb 0.00 in0.0 mm 0.00 in/hr0.0 mm/hr 0.00 in0.0 mm
10:20 AM 65.6°F18.7°C 57.9°F14.4°C 76% 6.4 mph E10.3 kmh E 12.0 mph19.3 kmh 29.89 in1012.2 mb 0.00 in0.0 mm 0.00 in/hr0.0 mm/hr 0.00 in0.0 mm
10:10 AM 64.8°F18.2°C 57.8°F14.3°C 78% 2.8 mph ENE4.5 kmh ENE 10.0 mph16.1 kmh 29.90 in1012.5 mb 0.00 in0.0 mm 0.00 in/hr0.0 mm/hr 0.00 in0.0 mm
10:00 AM 64.9°F18.3°C 57.9°F14.4°C 78% 5.8 mph E9.3 kmh E 9.0 mph14.5 kmh 29.90 in1012.5 mb 0.00 in0.0 mm 0.00 in/hr0.0 mm/hr 0.00 in0.0 mm
09:50 AM 63.8°F17.7°C 57.5°F14.2°C 80% 4.0 mph E6.4 kmh E 10.0 mph16.1 kmh 29.90 in1012.5 mb 0.00 in0.0 mm 0.00 in/hr0.0 mm/hr 0.00 in0.0 mm
09:40 AM 62.9°F17.2°C 57.0°F13.9°C 81% 4.2 mph ENE6.8 kmh ENE 9.0 mph14.5 kmh 29.90 in1012.5 mb 0.00 in0.0 mm 0.00 in/hr0.0 mm/hr 0.00 in0.0 mm
09:30 AM 62.9°F17.2°C 57.0°F13.9°C 81% 5.2 mph SE8.4 kmh SE 12.0 mph19.3 kmh 29.90 in1012.5 mb 0.00 in0.0 mm 0.00 in/hr0.0 mm/hr 0.00 in0.0 mm
09:20 AM 62.3°F16.8°C 56.7°F13.7°C 82% 5.4 mph E8.7 kmh E 12.0 mph19.3 kmh 29.91 in1012.9 mb 0.00 in0.0 mm 0.00 in/hr0.0 mm/hr 0.00 in0.0 mm
09:10 AM 61.6°F16.4°C 56.4°F13.6°C 83% 4.1 mph E6.6 kmh E 7.0 mph11.3 kmh 29.91 in1012.9 mb 0.00 in0.0 mm 0.00 in/hr0.0 mm/hr 0.00 in0.0 mm
09:00 AM 61.4°F16.3°C 56.2°F13.4°C 83% 5.4 mph E8.7 kmh E 11.0 mph17.7 kmh 29.91 in1012.9 mb 0.00 in0.0 mm 0.00 in/hr0.0 mm/hr 0.00 in0.0 mm
08:50 AM 61.2°F16.2°C 56.7°F13.7°C 85% 3.6 mph E5.8 kmh E 7.0 mph11.3 kmh 29.90 in1012.5 mb 0.00 in0.0 mm 0.00 in/hr0.0 mm/hr 0.00 in0.0 mm
08:40 AM 60.7°F15.9°C 56.2°F13.4°C 85% 5.1 mph E8.2 kmh E 8.0 mph12.9 kmh 29.91 in1012.9 mb 0.00 in0.0 mm 0.00 in/hr0.0 mm/hr 0.00 in0.0 mm
08:30 AM 60.7°F15.9°C 56.1°F13.4°C 85% 2.7 mph NE4.3 kmh NE 11.0 mph17.7 kmh 29.90 in1012.5 mb 0.00 in0.0 mm 0.00 in/hr0.0 mm/hr 0.00 in0.0 mm
08:20 AM 60.5°F15.8°C 56.3°F13.5°C 86% 4.2 mph E6.8 kmh E 9.0 mph14.5 kmh 29.91 in1012.9 mb 0.00 in0.0 mm 0.00 in/hr0.0 mm/hr 0.00 in0.0 mm
08:10 AM 60.4°F15.8°C 56.2°F13.4°C 86% 3.7 mph ENE6.0 kmh ENE 10.0 mph16.1 kmh 29.91 in1012.9 mb 0.00 in0.0 mm 0.00 in/hr0.0 mm/hr 0.00 in0.0 mm
08:00 AM 60.3°F15.7°C 56.1°F13.4°C 86% 3.7 mph E6.0 kmh E 5.0 mph8.0 kmh 29.91 in1012.9 mb 0.00 in0.0 mm 0.00 in/hr0.0 mm/hr 0.00 in0.0 mm
07:50 AM 60.1°F15.6°C 56.2°F13.4°C 87% 2.3 mph E3.7 kmh E 5.0 mph8.0 kmh 29.91 in1012.9 mb 0.00 in0.0 mm 0.00 in/hr0.0 mm/hr 0.00 in0.0 mm
07:40 AM 59.6°F15.3°C 55.7°F13.2°C 87% 4.6 mph ENE7.4 kmh ENE 7.0 mph11.3 kmh 29.91 in1012.9 mb 0.00 in0.0 mm 0.00 in/hr0.0 mm/hr 0.00 in0.0 mm
07:30 AM 59.4°F15.2°C 55.8°F13.2°C 88% 3.6 mph E5.8 kmh E 8.0 mph12.9 kmh 29.91 in1012.9 mb 0.00 in0.0 mm 0.00 in/hr0.0 mm/hr 0.00 in0.0 mm
07:20 AM 59.3°F15.2°C 55.7°F13.2°C 88% 2.7 mph ESE4.3 kmh ESE 10.0 mph16.1 kmh 29.91 in1012.9 mb 0.00 in0.0 mm 0.00 in/hr0.0 mm/hr 0.00 in0.0 mm
07:10 AM 59.3°F15.2°C 55.7°F13.2°C 88% 4.7 mph E7.6 kmh E 6.0 mph9.7 kmh 29.91 in1012.9 mb 0.00 in0.0 mm 0.00 in/hr0.0 mm/hr 0.00 in0.0 mm
07:00 AM 59.2°F15.1°C 56.0°F13.3°C 89% 2.2 mph NE3.5 kmh NE 9.0 mph14.5 kmh 29.91 in1012.9 mb 0.00 in0.0 mm 0.00 in/hr0.0 mm/hr 0.00 in0.0 mm
06:50 AM 59.1°F15.1°C 55.5°F13.1°C 88% 4.0 mph E6.4 kmh E 10.0 mph16.1 kmh 29.91 in1012.9 mb 0.00 in0.0 mm 0.00 in/hr0.0 mm/hr 0.00 in0.0 mm
06:40 AM 59.0°F15.0°C 55.5°F13.1°C 88% 1.3 mph ENE2.1 kmh ENE 5.0 mph8.0 kmh 29.91 in1012.9 mb 0.00 in0.0 mm 0.00 in/hr0.0 mm/hr 0.00 in0.0 mm
06:30 AM 59.0°F15.0°C 55.4°F13.0°C 88% 4.2 mph E6.8 kmh E 8.0 mph12.9 kmh 29.91 in1012.9 mb 0.00 in0.0 mm 0.00 in/hr0.0 mm/hr 0.00 in0.0 mm
06:20 AM 59.0°F15.0°C 55.8°F13.2°C 89% 5.4 mph E8.7 kmh E 8.0 mph12.9 kmh 29.91 in1012.9 mb 0.00 in0.0 mm 0.00 in/hr0.0 mm/hr 0.00 in0.0 mm
06:10 AM 59.1°F15.1°C 56.2°F13.4°C 90% 3.1 mph E5.0 kmh E 7.0 mph11.3 kmh 29.90 in1012.5 mb 0.00 in0.0 mm 0.00 in/hr0.0 mm/hr 0.00 in0.0 mm
06:00 AM 59.1°F15.1°C 56.2°F13.4°C 90% 2.2 mph E3.5 kmh E 4.0 mph6.4 kmh 29.90 in1012.5 mb 0.00 in0.0 mm 0.00 in/hr0.0 mm/hr 0.00 in0.0 mm
05:50 AM 59.1°F15.1°C 55.9°F13.3°C 89% 3.6 mph E5.8 kmh E 7.0 mph11.3 kmh 29.90 in1012.5 mb 0.00 in0.0 mm 0.00 in/hr0.0 mm/hr 0.00 in0.0 mm
05:40 AM 59.2°F15.1°C 56.0°F13.3°C 89% 7.5 mph E12.1 kmh E 10.0 mph16.1 kmh 29.90 in1012.5 mb 0.00 in0.0 mm 0.00 in/hr0.0 mm/hr 0.00 in0.0 mm
05:30 AM 59.3°F15.2°C 56.4°F13.6°C 90% 6.6 mph E10.6 kmh E 14.0 mph22.5 kmh 29.90 in1012.5 mb 0.00 in0.0 mm 0.00 in/hr0.0 mm/hr 0.00 in0.0 mm
05:20 AM 59.4°F15.2°C 56.5°F13.6°C 90% 5.6 mph E9.0 kmh E 9.0 mph14.5 kmh 29.89 in1012.2 mb 0.00 in0.0 mm 0.00 in/hr0.0 mm/hr 0.00 in0.0 mm
05:10 AM 59.4°F15.2°C 56.5°F13.6°C 90% 5.1 mph E8.2 kmh E 7.0 mph11.3 kmh 29.89 in1012.2 mb 0.00 in0.0 mm 0.00 in/hr0.0 mm/hr 0.00 in0.0 mm
05:00 AM 59.5°F15.3°C 56.6°F13.7°C 90% 2.5 mph NE4.0 kmh NE 6.0 mph9.7 kmh 29.89 in1012.2 mb 0.00 in0.0 mm 0.00 in/hr0.0 mm/hr 0.00 in0.0 mm
04:50 AM 59.5°F15.3°C 56.6°F13.7°C 90% 4.0 mph E6.4 kmh E 8.0 mph12.9 kmh 29.89 in1012.2 mb 0.00 in0.0 mm 0.00 in/hr0.0 mm/hr 0.00 in0.0 mm
04:40 AM 59.5°F15.3°C 56.9°F13.8°C 91% 7.9 mph E12.7 kmh E 11.0 mph17.7 kmh 29.89 in1012.2 mb 0.00 in0.0 mm 0.00 in/hr0.0 mm/hr 0.00 in0.0 mm
04:30 AM 59.5°F15.3°C 56.9°F13.8°C 91% 6.9 mph E11.1 kmh E 8.0 mph12.9 kmh 29.89 in1012.2 mb 0.00 in0.0 mm 0.00 in/hr0.0 mm/hr 0.00 in0.0 mm
04:20 AM 59.5°F15.3°C 56.8°F13.8°C 91% 5.4 mph E8.7 kmh E 11.0 mph17.7 kmh 29.89 in1012.2 mb 0.00 in0.0 mm 0.00 in/hr0.0 mm/hr 0.00 in0.0 mm
04:10 AM 59.4°F15.2°C 56.8°F13.8°C 91% 8.7 mph E14.0 kmh E 15.0 mph24.1 kmh 29.90 in1012.5 mb 0.00 in0.0 mm 0.00 in/hr0.0 mm/hr 0.00 in0.0 mm
04:00 AM 59.4°F15.2°C 57.1°F13.9°C 92% 4.5 mph E7.2 kmh E 5.0 mph8.0 kmh 29.89 in1012.2 mb 0.00 in0.0 mm 0.00 in/hr0.0 mm/hr 0.00 in0.0 mm
03:50 AM 59.3°F15.2°C 57.0°F13.9°C 92% 3.0 mph E4.8 kmh E 6.0 mph9.7 kmh 29.89 in1012.2 mb 0.00 in0.0 mm 0.00 in/hr0.0 mm/hr 0.00 in0.0 mm
03:40 AM 59.4°F15.2°C 57.1°F13.9°C 92% 5.7 mph E9.2 kmh E 9.0 mph14.5 kmh 29.90 in1012.5 mb 0.00 in0.0 mm 0.00 in/hr0.0 mm/hr 0.00 in0.0 mm
03:30 AM 59.3°F15.2°C 57.3°F14.1°C 93% 3.2 mph E5.1 kmh E 8.0 mph12.9 kmh 29.90 in1012.5 mb 0.00 in0.0 mm 0.00 in/hr0.0 mm/hr 0.00 in0.0 mm
03:20 AM 59.2°F15.1°C 57.2°F14.0°C 93% 3.3 mph E5.3 kmh E 8.0 mph12.9 kmh 29.90 in1012.5 mb 0.00 in0.0 mm 0.00 in/hr0.0 mm/hr 0.00 in0.0 mm
03:10 AM 59.1°F15.1°C 57.1°F13.9°C 93% 3.5 mph E5.6 kmh E 7.0 mph11.3 kmh 29.90 in1012.5 mb 0.00 in0.0 mm 0.00 in/hr0.0 mm/hr 0.00 in0.0 mm
03:00 AM 59.1°F15.1°C 57.1°F13.9°C 93% 5.7 mph E9.2 kmh E 9.0 mph14.5 kmh 29.90 in1012.5 mb 0.00 in0.0 mm 0.00 in/hr0.0 mm/hr 0.00 in0.0 mm
02:50 AM 59.1°F15.1°C 57.1°F13.9°C 93% 4.9 mph E7.9 kmh E 7.0 mph11.3 kmh 29.90 in1012.5 mb 0.00 in0.0 mm 0.00 in/hr0.0 mm/hr 0.00 in0.0 mm
02:40 AM 59.1°F15.1°C 57.1°F13.9°C 93% 4.8 mph ESE7.7 kmh ESE 10.0 mph16.1 kmh 29.90 in1012.5 mb 0.00 in0.0 mm 0.00 in/hr0.0 mm/hr 0.00 in0.0 mm
02:30 AM 59.0°F15.0°C 57.3°F14.1°C 94% 3.9 mph E6.3 kmh E 5.0 mph8.0 kmh 29.90 in1012.5 mb 0.00 in0.0 mm 0.00 in/hr0.0 mm/hr 0.00 in0.0 mm
02:20 AM 58.9°F14.9°C 57.2°F14.0°C 94% 2.5 mph E4.0 kmh E 8.0 mph12.9 kmh 29.91 in1012.9 mb 0.00 in0.0 mm 0.00 in/hr0.0 mm/hr 0.00 in0.0 mm
02:10 AM 58.8°F14.9°C 57.1°F13.9°C 94% 3.2 mph E5.1 kmh E 5.0 mph8.0 kmh 29.91 in1012.9 mb 0.00 in0.0 mm 0.00 in/hr0.0 mm/hr 0.00 in0.0 mm
02:00 AM 58.7°F14.8°C 57.0°F13.9°C 94% 1.9 mph E3.1 kmh E 5.0 mph8.0 kmh 29.91 in1012.9 mb 0.00 in0.0 mm 0.00 in/hr0.0 mm/hr 0.00 in0.0 mm
01:50 AM 58.7°F14.8°C 57.0°F13.9°C 94% 3.0 mph E4.8 kmh E 4.0 mph6.4 kmh 29.91 in1012.9 mb 0.00 in0.0 mm 0.00 in/hr0.0 mm/hr 0.00 in0.0 mm
01:40 AM 58.3°F14.6°C 56.6°F13.7°C 94% 2.9 mph E4.7 kmh E 6.0 mph9.7 kmh 29.91 in1012.9 mb 0.00 in0.0 mm 0.00 in/hr0.0 mm/hr 0.00 in0.0 mm
01:30 AM 58.1°F14.5°C 56.4°F13.6°C 94% 0.1 mph ENE0.2 kmh ENE 1.0 mph1.6 kmh 29.91 in1012.9 mb 0.00 in0.0 mm 0.00 in/hr0.0 mm/hr 0.00 in0.0 mm
01:20 AM 58.3°F14.6°C 56.3°F13.5°C 93% 0.7 mph ENE1.1 kmh ENE 4.0 mph6.4 kmh 29.91 in1012.9 mb 0.00 in0.0 mm 0.00 in/hr0.0 mm/hr 0.00 in0.0 mm
01:10 AM 58.4°F14.7°C 56.4°F13.6°C 93% 0.7 mph ENE1.1 kmh ENE 4.0 mph6.4 kmh 29.91 in1012.9 mb 0.00 in0.0 mm 0.00 in/hr0.0 mm/hr 0.00 in0.0 mm
01:00 AM 58.5°F14.7°C 56.5°F13.6°C 93% 1.8 mph E2.9 kmh E 5.0 mph8.0 kmh 29.91 in1012.9 mb 0.00 in0.0 mm 0.00 in/hr0.0 mm/hr 0.00 in0.0 mm
12:50 AM 58.5°F14.7°C 56.2°F13.4°C 92% 1.2 mph ENE1.9 kmh ENE 3.0 mph4.8 kmh 29.92 in1013.2 mb 0.00 in0.0 mm 0.00 in/hr0.0 mm/hr 0.00 in0.0 mm
12:40 AM 58.7°F14.8°C 56.1°F13.4°C 91% 0.6 mph E1.0 kmh E 4.0 mph6.4 kmh 29.92 in1013.2 mb 0.00 in0.0 mm 0.00 in/hr0.0 mm/hr 0.00 in0.0 mm
12:30 AM 59.1°F15.1°C 56.5°F13.6°C 91% 0.2 mph ENE0.3 kmh ENE 4.0 mph6.4 kmh 29.92 in1013.2 mb 0.00 in0.0 mm 0.00 in/hr0.0 mm/hr 0.00 in0.0 mm
12:20 AM 58.8°F14.9°C 55.9°F13.3°C 90% 1.8 mph ENE2.9 kmh ENE 8.0 mph12.9 kmh 29.92 in1013.2 mb 0.00 in0.0 mm 0.00 in/hr0.0 mm/hr 0.00 in0.0 mm
12:10 AM 58.8°F14.9°C 55.9°F13.3°C 90% Calm Calm 1.0 mph1.6 kmh 29.92 in1013.2 mb 0.00 in0.0 mm 0.00 in/hr0.0 mm/hr 0.00 in0.0 mm
12:00 AM 58.8°F14.9°C 55.9°F13.3°C 90% 0.2 mph E0.3 kmh E 2.0 mph3.2 kmh 29.92 in1013.2 mb 0.00 in0.0 mm 0.00 in/hr0.0 mm/hr 0.00 in0.0 mm